Time;durP1;ratioP1;P1;durP2;ratioP2;P2;SDS_P1;SDS_P2;PMS_P1;PMS_P2;Temp;Humidity;BMP_temperature;BMP_pressure;BME280_temperature;BME280_humidity;BME280_pressure;Samples;Min_cycle;Max_cycle;Signal;HPM_P1;HPM_P2
2023/12/23 00:00:13;;;;;;;0.30;0.20;;;0.30;99.90;;;;;;8199965;28;20228;-70
2023/12/23 00:04:14;;;;;;;0.60;0.20;;;0.40;99.90;;;;;;8195298;28;20220;-65
2023/12/23 00:08:14;;;;;;;0.50;0.50;;;0.40;99.90;;;;;;8188112;28;20199;-68
2023/12/23 00:12:15;;;;;;;0.83;0.50;;;0.40;99.90;;;;;;8198508;28;20338;-69
2023/12/23 00:16:16;;;;;;;0.60;0.30;;;0.40;99.90;;;;;;8197657;28;20193;-64
2023/12/23 00:20:16;;;;;;;0.30;0.30;;;0.40;99.90;;;;;;8195115;28;20195;-70
2023/12/23 00:24:17;;;;;;;0.50;0.50;;;0.40;99.90;;;;;;8194137;28;20192;-67
2023/12/23 00:28:18;;;;;;;0.53;0.47;;;0.50;99.90;;;;;;8196339;28;20207;-63
2023/12/23 00:32:18;;;;;;;0.43;0.43;;;0.50;99.90;;;;;;8190915;28;20637;-65
2023/12/23 00:36:19;;;;;;;0.70;0.30;;;0.40;99.90;;;;;;8194791;28;20188;-67
2023/12/23 00:40:20;;;;;;;0.90;0.40;;;0.50;99.90;;;;;;8200467;28;20275;-62
2023/12/23 00:44:20;;;;;;;0.50;0.30;;;0.40;99.90;;;;;;8193912;28;20192;-65
2023/12/23 00:48:22;;;;;;;0.37;0.37;;;0.40;99.90;;;;;;8197379;28;20191;-66
2023/12/23 00:52:23;;;;;;;0.37;0.33;;;0.40;99.90;;;;;;8189043;28;20278;-65
2023/12/23 00:56:24;;;;;;;0.53;0.47;;;0.40;99.90;;;;;;8199616;28;20248;-65
2023/12/23 01:00:24;;;;;;;0.90;0.40;;;0.40;99.90;;;;;;8192535;28;20193;-65
2023/12/23 01:04:25;;;;;;;0.43;0.37;;;0.30;99.90;;;;;;8192968;28;20216;-64
2023/12/23 01:08:27;;;;;;;0.70;0.27;;;0.30;99.90;;;;;;8196151;28;20188;-65
2023/12/23 01:12:28;;;;;;;0.27;0.13;;;0.30;99.90;;;;;;8190041;28;20208;-66
2023/12/23 01:16:28;;;;;;;0.30;0.23;;;0.40;99.90;;;;;;8206528;28;20851;-66
2023/12/23 01:20:29;;;;;;;1.00;0.27;;;0.40;99.90;;;;;;8187728;28;20272;-66
2023/12/23 01:24:30;;;;;;;0.57;0.20;;;0.50;99.90;;;;;;8192287;28;20328;-64
2023/12/23 01:28:31;;;;;;;1.33;0.40;;;0.50;99.90;;;;;;8192843;28;20199;-67
2023/12/23 01:32:32;;;;;;;0.83;0.47;;;0.50;99.90;;;;;;8199337;28;20560;-67
2023/12/23 01:36:32;;;;;;;0.30;0.30;;;0.50;99.90;;;;;;8190975;28;20212;-64
2023/12/23 01:40:34;;;;;;;1.67;0.60;;;0.60;99.90;;;;;;8187895;28;20216;-72
2023/12/23 01:44:34;;;;;;;1.17;0.37;;;0.60;99.90;;;;;;8197988;28;20184;-65
2023/12/23 01:48:39;;;;;;;0.80;0.40;;;0.70;99.90;;;;;;8202168;28;20216;-68
2023/12/23 01:52:40;;;;;;;0.57;0.33;;;0.70;99.90;;;;;;8197260;28;20216;-63
2023/12/23 01:56:42;;;;;;;0.60;0.47;;;0.70;99.90;;;;;;8199258;28;20680;-68
2023/12/23 02:00:43;;;;;;;1.00;0.50;;;0.70;99.90;;;;;;8194007;28;20189;-67
2023/12/23 02:04:43;;;;;;;0.50;0.50;;;0.70;99.90;;;;;;8201571;28;20212;-68
2023/12/23 02:08:44;;;;;;;0.60;0.30;;;0.70;99.90;;;;;;8195383;28;20188;-65
2023/12/23 02:12:54;;;;;;;0.43;0.43;;;0.70;99.90;;;;;;8208531;28;20285;-67
2023/12/23 02:16:58;;;;;;;0.50;0.47;;;0.70;99.90;;;;;;8195854;28;20220;-69
2023/12/23 02:20:59;;;;;;;0.80;0.47;;;0.60;99.90;;;;;;8211029;28;20188;-64
2023/12/23 02:25:00;;;;;;;1.60;0.50;;;0.60;99.90;;;;;;8196767;28;20189;-68
2023/12/23 02:29:01;;;;;;;0.60;0.60;;;0.60;99.90;;;;;;8211820;28;20216;-69
2023/12/23 02:33:02;;;;;;;0.70;0.47;;;0.60;99.90;;;;;;8198252;28;20216;-68
2023/12/23 02:37:03;;;;;;;1.53;0.63;;;0.70;99.90;;;;;;8193488;28;20196;-65
2023/12/23 02:41:04;;;;;;;0.50;0.50;;;0.70;99.90;;;;;;8203605;28;20185;-64
2023/12/23 02:45:06;;;;;;;0.60;0.50;;;0.70;99.90;;;;;;8207880;28;20435;-63
2023/12/23 02:49:07;;;;;;;0.60;0.30;;;0.70;99.90;;;;;;8212975;28;20196;-67
2023/12/23 02:53:08;;;;;;;0.57;0.30;;;0.60;99.90;;;;;;8197285;28;20217;-66
2023/12/23 02:57:09;;;;;;;1.53;0.70;;;0.50;99.90;;;;;;8222734;28;20212;-66
2023/12/23 03:01:09;;;;;;;1.10;0.60;;;0.60;99.90;;;;;;8203432;28;20195;-65
2023/12/23 03:05:10;;;;;;;2.97;0.87;;;0.60;99.90;;;;;;8199469;28;20208;-67
2023/12/23 03:09:11;;;;;;;0.50;0.37;;;0.60;99.90;;;;;;8195370;28;20208;-66
2023/12/23 03:13:11;;;;;;;1.23;0.43;;;0.60;99.90;;;;;;8196681;28;20212;-64
2023/12/23 03:17:12;;;;;;;1.00;0.70;;;0.60;99.90;;;;;;8203798;28;20182;-65
2023/12/23 03:21:13;;;;;;;1.03;0.37;;;0.60;99.90;;;;;;8194428;28;20213;-64
2023/12/23 03:25:14;;;;;;;1.40;0.73;;;0.60;99.90;;;;;;8198364;28;20243;-68
2023/12/23 03:29:14;;;;;;;0.87;0.57;;;0.60;99.90;;;;;;8197923;28;20196;-66
2023/12/23 03:33:15;;;;;;;1.53;0.60;;;0.60;99.90;;;;;;8195347;28;20219;-67
2023/12/23 03:37:16;;;;;;;0.50;0.40;;;0.60;99.90;;;;;;8189643;28;20213;-67
2023/12/23 03:41:17;;;;;;;3.17;1.00;;;0.60;99.90;;;;;;8198461;28;20196;-63
2023/12/23 03:45:19;;;;;;;0.73;0.50;;;0.60;99.90;;;;;;8199315;28;20188;-65
2023/12/23 03:49:19;;;;;;;1.50;0.60;;;0.50;99.90;;;;;;8198913;28;20192;-66
2023/12/23 03:53:20;;;;;;;1.03;0.73;;;0.60;99.90;;;;;;8203114;28;20642;-66
2023/12/23 03:57:21;;;;;;;3.27;0.47;;;0.60;99.90;;;;;;8200681;28;20184;-65
2023/12/23 04:01:22;;;;;;;1.40;0.50;;;0.50;99.90;;;;;;8192582;28;20197;-66
2023/12/23 04:05:22;;;;;;;1.10;0.50;;;0.50;99.90;;;;;;8201608;28;20218;-68
2023/12/23 04:09:23;;;;;;;1.60;0.70;;;0.50;99.90;;;;;;8201408;28;20489;-68
2023/12/23 04:13:24;;;;;;;1.23;0.87;;;0.50;99.90;;;;;;8201568;28;20208;-67
2023/12/23 04:17:25;;;;;;;0.77;0.50;;;0.60;99.90;;;;;;8202599;28;20193;-67
2023/12/23 04:21:26;;;;;;;1.10;0.60;;;0.50;99.90;;;;;;8200260;28;20345;-66
2023/12/23 04:25:26;;;;;;;1.23;0.70;;;0.50;99.90;;;;;;8201110;28;20203;-67
2023/12/23 04:29:29;;;;;;;4.07;0.77;;;0.50;99.90;;;;;;8206773;28;20216;-66
2023/12/23 04:33:30;;;;;;;0.93;0.50;;;0.50;99.90;;;;;;8196497;28;20364;-65
2023/12/23 04:37:31;;;;;;;2.43;0.80;;;0.50;99.90;;;;;;8210165;28;20193;-62
2023/12/23 04:41:34;;;;;;;1.57;0.60;;;0.40;99.90;;;;;;8213368;28;20288;-63
2023/12/23 04:45:35;;;;;;;4.87;0.97;;;0.30;99.90;;;;;;8214708;28;20200;-63
2023/12/23 04:49:41;;;;;;;3.00;0.97;;;0.20;99.90;;;;;;8202144;28;20193;-67
2023/12/23 04:53:42;;;;;;;2.47;0.80;;;0.10;99.90;;;;;;8201529;28;20209;-66
2023/12/23 04:57:43;;;;;;;2.10;0.60;;;0.10;99.90;;;;;;8196228;28;20192;-63
2023/12/23 05:01:44;;;;;;;1.43;1.17;;;0.00;99.90;;;;;;8202875;28;20196;-62
2023/12/23 05:05:45;;;;;;;3.43;0.80;;;-0.10;99.90;;;;;;8202391;28;20212;-63
2023/12/23 05:09:46;;;;;;;1.90;0.60;;;-0.10;99.90;;;;;;8201778;28;20201;-65
2023/12/23 05:13:46;;;;;;;2.83;0.90;;;-0.20;99.90;;;;;;8205776;28;20212;-62
2023/12/23 05:17:47;;;;;;;1.27;0.60;;;-0.20;99.90;;;;;;8202292;28;20248;-64
2023/12/23 05:21:48;;;;;;;4.30;0.50;;;-0.20;99.90;;;;;;8205515;28;20219;-62
2023/12/23 05:25:50;;;;;;;0.50;0.43;;;-0.20;99.90;;;;;;8202857;28;20242;-63
2023/12/23 05:29:55;;;;;;;2.30;0.73;;;-0.30;99.90;;;;;;8193246;28;20197;-63
2023/12/23 05:33:56;;;;;;;1.60;0.83;;;-0.40;99.90;;;;;;8204070;28;20240;-64
2023/12/23 05:37:57;;;;;;;3.13;0.60;;;-0.40;99.90;;;;;;8196133;28;20206;-63
2023/12/23 05:41:59;;;;;;;5.90;1.00;;;-0.40;99.90;;;;;;8200706;28;20192;-66
2023/12/23 05:46:00;;;;;;;3.70;0.70;;;-0.40;99.90;;;;;;8204127;28;20197;-65
2023/12/23 05:50:01;;;;;;;1.90;0.57;;;-0.30;99.90;;;;;;8203844;28;20196;-66
2023/12/23 05:54:01;;;;;;;2.80;1.10;;;-0.30;99.90;;;;;;8198614;28;20181;-65
2023/12/23 05:58:02;;;;;;;4.53;1.20;;;-0.20;99.90;;;;;;8204468;28;20196;-64
2023/12/23 06:02:03;;;;;;;2.43;0.93;;;-0.20;99.90;;;;;;8210848;28;20231;-64
2023/12/23 06:06:04;;;;;;;2.67;0.97;;;-0.10;99.90;;;;;;8202379;28;20213;-64
2023/12/23 06:10:05;;;;;;;4.63;1.20;;;-0.10;99.90;;;;;;8203669;28;20393;-68
2023/12/23 06:14:06;;;;;;;2.50;0.67;;;-0.10;99.90;;;;;;8203613;28;20189;-66
2023/12/23 06:18:07;;;;;;;2.07;0.60;;;-0.10;99.90;;;;;;8216722;28;20188;-65
2023/12/23 06:22:08;;;;;;;3.40;0.97;;;-0.10;99.90;;;;;;8224270;28;20204;-65
2023/12/23 06:26:12;;;;;;;4.60;0.87;;;-0.10;99.90;;;;;;8216345;28;20199;-65
2023/12/23 06:30:13;;;;;;;3.77;1.23;;;-0.10;99.90;;;;;;8221389;28;20267;-65
2023/12/23 06:34:16;;;;;;;2.80;1.20;;;-0.10;99.90;;;;;;8220025;28;20251;-63
2023/12/23 06:38:18;;;;;;;4.47;1.30;;;-0.10;99.90;;;;;;8211875;28;20188;-66
2023/12/23 06:42:18;;;;;;;6.53;1.40;;;-0.10;99.90;;;;;;8213645;28;20199;-65
2023/12/23 06:46:19;;;;;;;3.67;1.00;;;-0.10;99.90;;;;;;8207529;28;20188;-66
2023/12/23 06:50:20;;;;;;;5.90;1.27;;;-0.10;99.90;;;;;;8203481;28;20288;-65
2023/12/23 06:54:20;;;;;;;5.90;1.37;;;0.00;99.90;;;;;;8199017;28;20220;-64
2023/12/23 06:58:28;;;;;;;3.57;0.77;;;0.00;99.90;;;;;;8202277;28;21460;-66
2023/12/23 07:02:28;;;;;;;4.60;1.10;;;0.00;99.90;;;;;;8209227;28;20200;-65
2023/12/23 07:06:29;;;;;;;6.53;1.00;;;0.10;99.90;;;;;;8206587;28;20255;-67
2023/12/23 07:10:30;;;;;;;3.70;1.43;;;0.20;99.90;;;;;;8206628;28;20224;-65
2023/12/23 07:14:31;;;;;;;4.83;1.57;;;0.30;99.90;;;;;;8208669;28;20207;-65
2023/12/23 07:18:31;;;;;;;5.57;1.30;;;0.30;99.90;;;;;;8208103;28;20252;-65
2023/12/23 07:22:32;;;;;;;11.83;1.40;;;0.30;99.90;;;;;;8204250;28;20223;-65
2023/12/23 07:26:35;;;;;;;6.03;1.10;;;0.30;99.90;;;;;;8204229;28;20192;-64
2023/12/23 07:30:44;;;;;;;2.80;1.10;;;0.40;99.90;;;;;;8207562;28;20216;-67
2023/12/23 07:34:45;;;;;;;4.53;1.37;;;0.40;99.90;;;;;;8199367;28;20203;-65
2023/12/23 07:38:45;;;;;;;4.70;1.53;;;0.50;99.90;;;;;;8193717;28;20219;-65
2023/12/23 07:42:46;;;;;;;5.37;1.30;;;0.50;99.90;;;;;;8222710;28;20192;-64
2023/12/23 07:46:47;;;;;;;7.10;1.30;;;0.60;99.90;;;;;;8200723;28;20255;-65
2023/12/23 07:50:47;;;;;;;6.07;1.83;;;0.60;99.90;;;;;;8198331;28;21232;-65
2023/12/23 07:54:48;;;;;;;11.80;2.80;;;0.60;99.90;;;;;;8207700;28;20185;-63
2023/12/23 07:58:49;;;;;;;6.03;1.43;;;0.80;99.90;;;;;;8205108;28;20194;-61
2023/12/23 08:02:50;;;;;;;6.00;1.53;;;0.90;99.90;;;;;;8202380;28;20212;-65
2023/12/23 08:06:52;;;;;;;10.30;2.70;;;0.90;99.90;;;;;;8204534;28;20241;-65
2023/12/23 08:10:54;;;;;;;12.63;3.20;;;0.90;99.90;;;;;;8197032;28;20235;-65
2023/12/23 08:14:55;;;;;;;8.00;2.53;;;1.00;99.90;;;;;;8203632;28;20182;-66
2023/12/23 08:18:55;;;;;;;6.43;1.63;;;1.00;99.90;;;;;;8204952;28;20185;-67
2023/12/23 08:22:56;;;;;;;4.10;1.50;;;1.10;99.90;;;;;;8199068;28;20520;-65
2023/12/23 08:26:57;;;;;;;6.47;1.53;;;1.10;99.90;;;;;;8200898;28;20276;-65
2023/12/23 08:30:58;;;;;;;5.67;2.67;;;1.10;99.90;;;;;;8198712;28;20336;-67
2023/12/23 08:34:59;;;;;;;7.77;3.50;;;1.10;99.90;;;;;;8197900;28;20191;-65
2023/12/23 08:38:59;;;;;;;3.60;1.20;;;1.10;99.90;;;;;;8200439;28;20276;-68
2023/12/23 08:43:00;;;;;;;10.03;1.80;;;1.20;99.90;;;;;;8196765;28;20204;-64
2023/12/23 08:47:01;;;;;;;7.83;1.93;;;1.20;99.90;;;;;;8205180;28;20503;-69
2023/12/23 08:51:02;;;;;;;4.03;1.33;;;1.30;99.90;;;;;;8203670;28;20271;-69
2023/12/23 08:55:03;;;;;;;6.17;1.77;;;1.30;99.90;;;;;;8196021;28;20196;-67
2023/12/23 08:59:04;;;;;;;7.60;1.70;;;1.30;99.90;;;;;;8198442;28;20188;-71
2023/12/23 09:03:05;;;;;;;7.80;1.50;;;1.30;99.90;;;;;;8187555;28;20232;-65
2023/12/23 09:07:08;;;;;;;5.23;1.50;;;1.30;99.90;;;;;;8201702;28;20189;-64
2023/12/23 09:11:08;;;;;;;3.07;1.40;;;1.30;99.90;;;;;;8202230;28;20216;-65
2023/12/23 09:15:09;;;;;;;6.47;1.63;;;1.40;99.90;;;;;;8210605;28;20185;-67
2023/12/23 09:19:10;;;;;;;6.07;1.60;;;1.40;99.90;;;;;;8212152;28;20705;-67
2023/12/23 09:23:11;;;;;;;7.77;1.77;;;1.40;99.90;;;;;;8206236;28;20195;-63
2023/12/23 09:27:12;;;;;;;4.60;1.63;;;1.50;99.90;;;;;;8204768;28;20177;-64
2023/12/23 09:31:12;;;;;;;5.80;1.23;;;1.60;99.90;;;;;;8201483;28;20639;-68
2023/12/23 09:35:14;;;;;;;5.47;1.10;;;1.60;99.90;;;;;;8203549;28;20181;-66
2023/12/23 09:39:15;;;;;;;3.53;1.10;;;1.60;99.90;;;;;;8200417;28;20212;-65
2023/12/23 09:43:18;;;;;;;1.77;1.17;;;1.60;99.90;;;;;;8205026;28;20196;-65
2023/12/23 09:47:19;;;;;;;2.57;1.30;;;1.60;99.90;;;;;;8198239;28;20240;-66
2023/12/23 09:51:25;;;;;;;1.60;0.90;;;1.70;99.90;;;;;;8201721;28;20208;-65
2023/12/23 09:55:27;;;;;;;4.10;1.60;;;1.70;99.90;;;;;;8200621;28;20547;-65
2023/12/23 09:59:31;;;;;;;2.90;0.87;;;1.40;99.90;;;;;;8199121;28;20250;-65
2023/12/23 10:03:32;;;;;;;1.07;0.80;;;1.30;99.90;;;;;;8198423;28;20215;-68
2023/12/23 10:07:33;;;;;;;0.97;0.80;;;1.20;99.90;;;;;;8219917;28;20199;-65
2023/12/23 10:11:34;;;;;;;3.23;2.40;;;1.20;99.90;;;;;;8201523;28;20200;-65
2023/12/23 10:15:34;;;;;;;3.33;0.97;;;1.30;99.90;;;;;;8199797;28;20212;-64
2023/12/23 10:19:35;;;;;;;2.83;0.80;;;1.20;99.90;;;;;;8201784;28;20197;-65
2023/12/23 10:23:36;;;;;;;0.70;0.70;;;1.30;99.90;;;;;;8219153;28;20211;-64
2023/12/23 10:27:41;;;;;;;0.87;0.50;;;1.40;99.90;;;;;;8202245;28;20185;-64
2023/12/23 10:31:44;;;;;;;1.37;1.07;;;1.30;99.90;;;;;;8199301;28;20224;-65
2023/12/23 10:35:47;;;;;;;1.93;1.00;;;1.30;99.90;;;;;;8213730;28;20209;-64
2023/12/23 10:39:57;;;;;;;0.80;0.70;;;1.30;99.90;;;;;;8216715;28;20201;-62
2023/12/23 10:43:59;;;;;;;0.60;0.60;;;1.20;99.90;;;;;;8204823;28;20473;-64
2023/12/23 10:48:02;;;;;;;1.80;0.80;;;1.10;99.90;;;;;;8201252;28;20195;-67
2023/12/23 10:52:03;;;;;;;1.13;0.90;;;1.00;99.90;;;;;;8207476;28;20209;-64
2023/12/23 10:56:05;;;;;;;1.50;0.97;;;0.90;99.90;;;;;;8201436;28;20191;-65
2023/12/23 11:00:06;;;;;;;1.50;1.30;;;0.80;99.90;;;;;;8206495;28;20231;-67
2023/12/23 11:04:07;;;;;;;1.10;0.73;;;0.70;99.90;;;;;;8199435;28;20204;-67
2023/12/23 11:08:18;;;;;;;2.43;1.10;;;0.70;99.90;;;;;;8204114;28;20197;-67
2023/12/23 11:12:19;;;;;;;2.73;1.27;;;0.70;99.90;;;;;;8201129;28;20209;-67
2023/12/23 11:16:20;;;;;;;1.23;0.80;;;0.60;99.90;;;;;;8215764;28;20185;-66
2023/12/23 11:20:36;;;;;;;3.23;1.00;;;0.60;99.90;;;;;;8198151;28;20254;-67
2023/12/23 11:24:37;;;;;;;1.77;1.43;;;0.50;99.90;;;;;;8194596;28;20197;-67
2023/12/23 11:28:39;;;;;;;2.40;1.10;;;0.50;99.90;;;;;;8195424;28;20193;-68
2023/12/23 11:32:44;;;;;;;1.60;0.90;;;0.50;99.90;;;;;;8191674;28;20238;-67
2023/12/23 11:36:46;;;;;;;1.67;0.83;;;0.50;99.90;;;;;;8191906;28;20185;-68
2023/12/23 11:40:50;;;;;;;1.60;1.13;;;0.50;99.90;;;;;;8196709;28;20188;-69
2023/12/23 11:44:51;;;;;;;2.07;1.20;;;0.60;99.90;;;;;;8197469;28;20193;-67
2023/12/23 11:48:52;;;;;;;1.23;1.00;;;0.60;99.90;;;;;;8198300;28;20265;-66
2023/12/23 11:52:54;;;;;;;1.63;0.90;;;0.70;99.90;;;;;;8191528;28;20208;-68
2023/12/23 11:56:55;;;;;;;0.57;0.50;;;0.80;99.90;;;;;;8186675;28;20216;-62
2023/12/23 12:00:55;;;;;;;0.57;0.50;;;0.90;99.90;;;;;;8205703;28;20184;-63
2023/12/23 12:04:56;;;;;;;0.70;0.60;;;0.90;99.90;;;;;;8194886;28;20287;-65
2023/12/23 12:08:58;;;;;;;0.83;0.50;;;0.90;99.90;;;;;;8196877;28;20228;-64
2023/12/23 12:12:59;;;;;;;1.47;0.70;;;0.90;99.90;;;;;;8192612;28;20217;-63
2023/12/23 12:17:03;;;;;;;1.00;0.70;;;0.90;99.90;;;;;;8197696;28;20372;-66
2023/12/23 12:21:05;;;;;;;1.10;0.90;;;0.90;99.90;;;;;;8193278;28;20188;-63
2023/12/23 12:25:06;;;;;;;0.73;0.73;;;0.90;99.90;;;;;;8185382;28;20189;-64
2023/12/23 12:29:07;;;;;;;0.90;0.67;;;0.80;99.90;;;;;;8204160;28;20195;-63
2023/12/23 12:33:11;;;;;;;1.23;0.63;;;0.80;99.90;;;;;;8189265;28;20303;-65
2023/12/23 12:37:12;;;;;;;1.13;0.67;;;0.70;99.90;;;;;;8194104;28;20190;-63
2023/12/23 12:41:13;;;;;;;1.33;0.70;;;0.70;99.90;;;;;;8196020;28;20213;-63
2023/12/23 12:45:14;;;;;;;1.00;0.77;;;0.70;99.90;;;;;;8196318;28;20215;-65
2023/12/23 12:49:18;;;;;;;0.90;0.90;;;0.70;99.90;;;;;;8197734;28;20193;-66
2023/12/23 12:53:19;;;;;;;1.23;0.70;;;0.60;99.90;;;;;;8192692;28;20244;-64
2023/12/23 12:57:20;;;;;;;0.63;0.50;;;0.60;99.90;;;;;;8199516;28;20180;-66
2023/12/23 13:01:21;;;;;;;0.70;0.70;;;0.60;99.90;;;;;;8196702;28;20184;-64
2023/12/23 13:05:21;;;;;;;0.50;0.50;;;0.60;99.90;;;;;;8198762;28;20217;-67
2023/12/23 13:09:22;;;;;;;1.00;0.70;;;0.70;99.90;;;;;;8184523;28;20211;-65
2023/12/23 13:13:24;;;;;;;0.90;0.60;;;0.70;99.90;;;;;;8198594;28;20204;-66
2023/12/23 13:17:25;;;;;;;1.03;0.70;;;0.70;99.90;;;;;;8198790;28;20243;-67
2023/12/23 13:21:26;;;;;;;1.10;0.80;;;0.70;99.90;;;;;;8187704;28;20220;-67
2023/12/23 13:25:27;;;;;;;1.03;0.80;;;0.70;99.90;;;;;;8187853;28;20204;-67
2023/12/23 13:29:28;;;;;;;1.00;0.90;;;0.70;99.90;;;;;;8184728;28;20188;-66
2023/12/23 13:33:30;;;;;;;1.90;0.77;;;0.70;99.90;;;;;;8186924;28;20233;-67
2023/12/23 13:37:31;;;;;;;0.87;0.83;;;0.70;99.90;;;;;;8188942;28;20246;-66
2023/12/23 13:41:32;;;;;;;1.10;0.80;;;0.70;99.90;;;;;;8189426;28;20205;-66
2023/12/23 13:45:33;;;;;;;1.67;0.70;;;0.70;99.90;;;;;;8203862;28;20203;-66
2023/12/23 13:49:33;;;;;;;0.70;0.70;;;0.70;99.90;;;;;;8191450;28;20217;-67
2023/12/23 13:53:35;;;;;;;1.10;0.93;;;0.70;99.90;;;;;;8188761;28;20216;-66
2023/12/23 13:57:35;;;;;;;1.13;0.80;;;0.70;99.90;;;;;;8192734;28;20192;-65
2023/12/23 14:01:36;;;;;;;2.13;0.83;;;0.70;99.90;;;;;;8192428;28;20225;-66
2023/12/23 14:05:38;;;;;;;1.93;1.00;;;0.70;99.90;;;;;;8189803;28;20220;-65
2023/12/23 14:09:39;;;;;;;1.00;0.90;;;0.70;99.90;;;;;;8189111;28;20310;-64
2023/12/23 14:13:40;;;;;;;1.63;1.10;;;0.70;99.90;;;;;;8186104;28;20240;-64
2023/12/23 14:17:41;;;;;;;0.90;0.80;;;0.70;99.90;;;;;;8184142;28;20208;-66
2023/12/23 14:21:42;;;;;;;0.87;0.73;;;0.70;99.90;;;;;;8186789;28;20626;-66
2023/12/23 14:25:43;;;;;;;1.13;0.90;;;0.70;99.90;;;;;;8192260;28;20640;-64
2023/12/23 14:29:48;;;;;;;0.90;0.77;;;0.70;99.90;;;;;;8204741;28;20302;-63
2023/12/23 14:33:51;;;;;;;1.03;0.87;;;0.80;99.90;;;;;;8197258;28;20324;-63
2023/12/23 14:37:52;;;;;;;1.27;0.80;;;0.80;99.90;;;;;;8202432;28;20189;-64
2023/12/23 14:41:56;;;;;;;0.60;0.57;;;0.70;99.90;;;;;;8201604;28;20192;-65
2023/12/23 14:45:57;;;;;;;0.77;0.70;;;0.80;99.90;;;;;;8192231;28;20284;-63
2023/12/23 14:49:58;;;;;;;0.90;0.70;;;0.70;99.90;;;;;;8197844;28;20209;-63
2023/12/23 14:53:59;;;;;;;0.83;0.77;;;0.70;99.90;;;;;;8208420;28;20694;-62
2023/12/23 14:57:59;;;;;;;1.20;1.00;;;0.70;99.90;;;;;;8204183;28;20184;-60
2023/12/23 15:02:01;;;;;;;0.93;0.83;;;0.70;99.90;;;;;;8207503;28;20197;-60
2023/12/23 15:06:02;;;;;;;0.60;0.60;;;0.70;99.90;;;;;;8208695;28;20293;-62
2023/12/23 15:10:03;;;;;;;1.50;0.90;;;0.70;99.90;;;;;;8207019;28;20206;-61
2023/12/23 15:14:06;;;;;;;0.80;0.70;;;0.70;99.90;;;;;;8203719;28;20204;-62
2023/12/23 15:18:07;;;;;;;0.77;0.70;;;0.80;99.90;;;;;;8214386;28;20185;-60
2023/12/23 15:22:09;;;;;;;1.00;0.90;;;0.80;99.90;;;;;;8214437;28;20239;-62
2023/12/23 15:26:09;;;;;;;1.20;0.90;;;0.80;99.90;;;;;;8207958;28;20195;-67
2023/12/23 15:30:11;;;;;;;1.20;1.00;;;0.80;99.90;;;;;;8200382;28;20236;-65
2023/12/23 15:34:12;;;;;;;1.03;0.87;;;0.80;99.90;;;;;;8192790;28;20302;-63
2023/12/23 15:38:13;;;;;;;1.03;0.93;;;0.80;99.90;;;;;;8208486;28;20208;-63
2023/12/23 15:42:14;;;;;;;1.33;0.90;;;0.80;99.90;;;;;;8203397;28;20284;-62
2023/12/23 15:46:16;;;;;;;1.33;1.23;;;0.80;99.90;;;;;;8201563;28;20189;-64
2023/12/23 15:50:18;;;;;;;1.10;0.80;;;0.80;99.90;;;;;;8198512;28;20212;-65
2023/12/23 15:54:19;;;;;;;0.93;0.70;;;0.80;99.90;;;;;;8208913;28;20428;-62
2023/12/23 15:58:21;;;;;;;1.00;0.80;;;0.80;99.90;;;;;;8200999;28;20426;-63
2023/12/23 16:02:25;;;;;;;1.17;1.00;;;0.80;99.90;;;;;;8210804;28;20188;-64
2023/12/23 16:06:27;;;;;;;1.30;1.17;;;0.80;99.90;;;;;;8202681;28;20240;-65
2023/12/23 16:10:28;;;;;;;2.87;1.00;;;0.80;99.90;;;;;;8202309;28;20188;-65
2023/12/23 16:14:29;;;;;;;3.97;3.43;;;0.80;99.90;;;;;;8201732;28;20192;-63
2023/12/23 16:18:29;;;;;;;4.40;4.00;;;0.80;99.90;;;;;;8204596;28;20230;-64
2023/12/23 16:22:30;;;;;;;2.47;1.23;;;0.80;99.90;;;;;;8188151;28;20216;-64
2023/12/23 16:26:31;;;;;;;1.17;1.03;;;0.80;99.90;;;;;;8201096;28;20287;-63
2023/12/23 16:30:32;;;;;;;2.20;1.63;;;0.80;99.90;;;;;;8204504;28;20276;-65
2023/12/23 16:34:33;;;;;;;1.57;0.93;;;0.80;99.90;;;;;;8191212;28;20248;-64
2023/12/23 16:38:34;;;;;;;1.83;1.60;;;0.80;99.90;;;;;;8199891;28;20197;-64
2023/12/23 16:42:36;;;;;;;1.60;1.20;;;0.80;99.90;;;;;;8199302;28;20232;-64
2023/12/23 16:46:37;;;;;;;2.20;1.30;;;0.80;99.90;;;;;;8197610;28;20215;-65
2023/12/23 16:50:38;;;;;;;2.40;1.30;;;0.80;99.90;;;;;;8195460;28;20196;-64
2023/12/23 16:54:39;;;;;;;1.30;1.17;;;0.80;99.90;;;;;;8197266;28;20203;-64
2023/12/23 16:58:40;;;;;;;2.00;1.03;;;0.80;99.90;;;;;;8200318;28;20197;-65
2023/12/23 17:02:41;;;;;;;3.03;1.30;;;0.80;99.90;;;;;;8201332;28;20934;-66
2023/12/23 17:06:42;;;;;;;1.77;1.40;;;0.80;99.90;;;;;;8182117;28;20219;-63
2023/12/23 17:10:44;;;;;;;6.87;2.97;;;0.90;99.90;;;;;;8190696;28;20581;-64
2023/12/23 17:14:48;;;;;;;3.70;2.37;;;0.90;99.90;;;;;;8197908;28;20201;-64
2023/12/23 17:18:49;;;;;;;4.40;2.23;;;0.90;99.90;;;;;;8193487;28;20235;-65
2023/12/23 17:22:53;;;;;;;3.07;2.43;;;0.90;99.90;;;;;;8190970;28;20264;-66
2023/12/23 17:26:57;;;;;;;3.07;2.47;;;0.90;99.90;;;;;;8206040;28;20219;-64
2023/12/23 17:30:57;;;;;;;3.83;2.60;;;0.90;99.90;;;;;;8202892;28;20232;-64
2023/12/23 17:34:58;;;;;;;5.30;3.93;;;0.90;99.90;;;;;;8173810;28;20196;-63
2023/12/23 17:38:59;;;;;;;5.37;4.63;;;0.90;99.90;;;;;;8208791;28;20199;-65
2023/12/23 17:43:02;;;;;;;6.67;4.80;;;0.90;99.90;;;;;;8213062;28;20223;-64
2023/12/23 17:47:03;;;;;;;4.63;3.50;;;1.00;99.90;;;;;;8207446;28;20189;-63
2023/12/23 17:51:04;;;;;;;4.33;3.60;;;1.00;99.90;;;;;;8210076;28;20308;-63
2023/12/23 17:55:05;;;;;;;3.10;2.70;;;1.10;99.90;;;;;;8209979;28;20184;-63
2023/12/23 17:59:10;;;;;;;4.20;3.33;;;1.10;99.90;;;;;;8228415;28;20196;-64
2023/12/23 18:03:17;;;;;;;3.93;2.70;;;1.10;99.90;;;;;;8211883;28;20339;-64
2023/12/23 18:07:21;;;;;;;3.70;2.50;;;1.10;99.90;;;;;;8213222;28;20232;-64
2023/12/23 18:11:22;;;;;;;2.83;2.37;;;1.20;99.90;;;;;;8230130;28;20205;-64
2023/12/23 18:15:24;;;;;;;3.50;2.20;;;1.20;99.90;;;;;;8226992;28;20211;-62
2023/12/23 18:19:25;;;;;;;2.87;2.13;;;1.20;99.90;;;;;;8230095;28;20514;-62
2023/12/23 18:23:26;;;;;;;3.47;2.43;;;1.20;99.90;;;;;;8220916;28;20216;-62
2023/12/23 18:27:27;;;;;;;3.63;2.30;;;1.30;99.90;;;;;;8201677;28;20252;-63
2023/12/23 18:31:28;;;;;;;4.57;2.80;;;1.30;99.90;;;;;;8198233;28;20221;-63
2023/12/23 18:35:29;;;;;;;3.30;2.47;;;1.30;99.90;;;;;;8186497;28;20765;-64
2023/12/23 18:39:30;;;;;;;3.83;2.50;;;1.30;99.90;;;;;;8192056;28;20216;-63
2023/12/23 18:43:31;;;;;;;3.23;2.57;;;1.40;99.90;;;;;;8189918;28;20299;-66
2023/12/23 18:47:32;;;;;;;3.03;2.30;;;1.50;99.90;;;;;;8209330;28;20242;-64
2023/12/23 18:51:33;;;;;;;3.90;2.43;;;1.50;99.90;;;;;;8188636;28;20287;-64
2023/12/23 18:55:34;;;;;;;2.07;1.80;;;1.50;99.90;;;;;;8195095;28;20502;-66
2023/12/23 18:59:35;;;;;;;2.13;1.90;;;1.50;99.90;;;;;;8192050;28;20193;-64
2023/12/23 19:03:35;;;;;;;1.57;1.30;;;1.50;99.90;;;;;;8193779;28;20235;-63
2023/12/23 19:07:37;;;;;;;1.53;1.43;;;1.50;99.90;;;;;;8195083;28;20193;-63
2023/12/23 19:11:37;;;;;;;1.60;1.50;;;1.60;99.90;;;;;;8199809;28;20279;-64
2023/12/23 19:15:38;;;;;;;1.63;1.27;;;1.60;99.90;;;;;;8189706;28;20181;-66
2023/12/23 19:19:41;;;;;;;1.37;1.20;;;1.60;99.90;;;;;;8191984;28;20291;-64
2023/12/23 19:23:41;;;;;;;2.67;1.37;;;1.60;99.90;;;;;;8195385;28;20616;-64
2023/12/23 19:27:42;;;;;;;0.90;0.90;;;1.50;99.90;;;;;;8193281;28;20457;-64
2023/12/23 19:31:43;;;;;;;1.33;1.00;;;1.50;99.90;;;;;;8194215;28;20224;-66
2023/12/23 19:35:47;;;;;;;1.30;0.90;;;1.50;99.90;;;;;;8196563;28;20584;-63
2023/12/23 19:39:50;;;;;;;1.10;1.00;;;1.50;99.90;;;;;;8197463;28;20188;-64
2023/12/23 19:43:51;;;;;;;1.20;1.10;;;1.50;99.90;;;;;;8201542;28;20181;-63
2023/12/23 19:47:52;;;;;;;0.80;0.70;;;1.50;99.90;;;;;;8209525;28;20191;-67
2023/12/23 19:51:54;;;;;;;0.80;0.60;;;1.50;99.90;;;;;;8208776;28;20224;-64
2023/12/23 19:55:55;;;;;;;1.43;0.90;;;1.50;99.90;;;;;;8211980;28;20186;-62
2023/12/23 19:59:56;;;;;;;0.87;0.80;;;1.40;99.90;;;;;;8202329;28;20185;-62
2023/12/23 20:04:00;;;;;;;0.93;0.80;;;1.50;99.90;;;;;;8194939;28;20283;-63
2023/12/23 20:08:01;;;;;;;1.00;0.90;;;1.40;99.90;;;;;;8204329;28;20252;-64
2023/12/23 20:12:02;;;;;;;1.07;1.07;;;1.50;99.90;;;;;;8202693;28;20291;-64
2023/12/23 20:16:04;;;;;;;1.60;1.27;;;1.50;99.90;;;;;;8198911;28;20185;-63
2023/12/23 20:20:06;;;;;;;1.37;1.10;;;1.50;99.90;;;;;;8204331;28;20617;-63
2023/12/23 20:24:07;;;;;;;2.13;1.50;;;1.50;99.90;;;;;;8198016;28;20189;-64
2023/12/23 20:28:08;;;;;;;1.43;1.27;;;1.60;99.90;;;;;;8209293;28;20192;-64
2023/12/23 20:32:12;;;;;;;1.77;1.20;;;1.60;99.90;;;;;;8200510;28;20263;-64
2023/12/23 20:36:13;;;;;;;1.50;1.10;;;1.50;99.90;;;;;;8196670;28;20181;-64
2023/12/23 20:40:14;;;;;;;1.80;0.90;;;1.50;99.90;;;;;;8196602;28;20192;-64
2023/12/23 20:44:15;;;;;;;1.00;0.90;;;1.50;99.90;;;;;;8195864;28;20189;-64
2023/12/23 20:48:16;;;;;;;1.13;0.90;;;1.50;99.90;;;;;;8197147;28;20200;-64
2023/12/23 20:52:17;;;;;;;0.90;0.77;;;1.40;99.90;;;;;;8193175;28;20304;-65
2023/12/23 20:56:20;;;;;;;1.40;1.20;;;1.40;99.90;;;;;;8195024;28;20633;-64
2023/12/23 21:00:22;;;;;;;0.70;0.70;;;1.30;99.90;;;;;;8199450;28;20192;-63
2023/12/23 21:04:23;;;;;;;1.30;1.00;;;1.30;99.90;;;;;;8198066;28;20272;-62
2023/12/23 21:08:24;;;;;;;1.13;1.00;;;1.20;99.90;;;;;;8197500;28;20643;-63